createdAt,value
2023-05-11T00:00:11.988Z,80.21
2023-05-11T00:03:14.792Z,80.38
2023-05-11T00:06:18.828Z,80.44
2023-05-11T00:09:21.385Z,80.76
2023-05-11T00:12:23.956Z,80.92
2023-05-11T00:15:26.709Z,80.94
2023-05-11T00:18:29.321Z,81.23
2023-05-11T00:21:33.527Z,81.30
2023-05-11T00:24:36.192Z,81.47
2023-05-11T00:27:39.319Z,81.54
2023-05-11T00:30:41.879Z,81.14
2023-05-11T00:33:44.398Z,80.84
2023-05-11T00:36:49.523Z,80.87
2023-05-11T00:39:52.104Z,80.98
2023-05-11T00:42:54.697Z,81.45
2023-05-11T00:45:57.305Z,81.47
2023-05-11T00:48:59.896Z,81.24
2023-05-11T00:52:03.859Z,81.29
2023-05-11T00:55:07.415Z,81.56
2023-05-11T00:58:09.983Z,81.10
2023-05-11T01:01:13.964Z,81.35
2023-05-11T01:04:16.612Z,81.61
2023-05-11T01:07:22.741Z,82.12
2023-05-11T01:10:29.299Z,82.62
2023-05-11T01:13:32.932Z,82.80
2023-05-11T01:18:28.082Z,82.80
2023-05-11T01:21:31.498Z,83.86
2023-05-11T01:24:39.494Z,83.89
2023-05-11T01:27:51.541Z,83.81
2023-05-11T01:30:55.954Z,84.26
2023-05-11T01:33:59.571Z,84.87
2023-05-11T01:37:06.299Z,84.47
2023-05-11T01:40:13.218Z,84.90
2023-05-11T01:43:17.030Z,84.93
2023-05-11T01:46:20.988Z,85.46
2023-05-11T01:49:23.513Z,85.01
2023-05-11T01:52:27.020Z,85.37
2023-05-11T01:55:29.588Z,85.66
2023-05-11T01:58:32.290Z,85.74
2023-05-11T02:01:36.703Z,85.88
2023-05-11T02:04:39.256Z,85.63
2023-05-11T02:07:41.772Z,85.47
2023-05-11T02:10:44.361Z,86.06
2023-05-11T02:13:46.947Z,86.05
2023-05-11T02:16:50.865Z,86.26
2023-05-11T02:19:53.487Z,86.37
2023-05-11T02:22:56.090Z,86.15
2023-05-11T02:25:58.735Z,86.62
2023-05-11T02:29:01.313Z,86.68
2023-05-11T02:32:08.001Z,85.67
2023-05-11T02:35:13.965Z,85.84
2023-05-11T02:38:16.653Z,86.50
2023-05-11T02:41:22.848Z,85.75
2023-05-11T02:44:25.965Z,85.93
2023-05-11T02:47:32.061Z,86.05
2023-05-11T02:50:36.477Z,85.69
2023-05-11T02:53:39.007Z,85.72
2023-05-11T02:56:41.537Z,86.35
2023-05-11T02:59:44.119Z,85.65
2023-05-11T03:02:48.114Z,85.79
2023-05-11T03:05:51.157Z,86.09
2023-05-11T03:08:53.750Z,86.05
2023-05-11T03:11:56.314Z,85.89
2023-05-11T03:14:59.259Z,86.06
2023-05-11T03:18:03.218Z,86.22
2023-05-11T03:21:05.851Z,85.93
2023-05-11T03:24:08.553Z,86.02
2023-05-11T03:27:11.109Z,86.29
2023-05-11T03:30:15.000Z,85.66
2023-05-11T03:33:19.852Z,86.30
2023-05-11T03:36:22.794Z,86.55
2023-05-11T03:39:25.345Z,86.71
2023-05-11T03:42:27.902Z,86.31
2023-05-11T03:45:31.392Z,86.79
2023-05-11T03:48:35.288Z,86.27
2023-05-11T03:51:37.823Z,86.39
2023-05-11T03:54:40.350Z,86.48
2023-05-11T03:57:42.985Z,86.23
2023-05-11T04:00:45.509Z,86.23
2023-05-11T04:03:50.541Z,86.49
2023-05-11T04:06:53.244Z,86.17
2023-05-11T04:09:55.773Z,86.69
2023-05-11T04:12:58.372Z,86.99
2023-05-11T04:16:00.986Z,86.93
2023-05-11T04:19:06.235Z,86.37
2023-05-11T04:22:08.860Z,86.92
2023-05-11T04:25:11.524Z,86.62
2023-05-11T04:28:14.078Z,87.37
2023-05-11T04:31:16.916Z,87.54
2023-05-11T04:34:21.597Z,86.84
2023-05-11T04:37:24.128Z,87.28
2023-05-11T04:40:26.712Z,86.49
2023-05-11T04:43:29.832Z,86.96
2023-05-11T04:46:32.450Z,87.37
2023-05-11T04:49:36.784Z,86.62
2023-05-11T04:52:39.380Z,87.09
2023-05-11T04:55:41.962Z,86.93
2023-05-11T04:58:44.583Z,87.30
2023-05-11T05:01:47.182Z,86.67
2023-05-11T05:04:51.382Z,86.58
2023-05-11T05:07:53.958Z,86.73
2023-05-11T05:10:56.519Z,86.85
2023-05-11T05:13:59.039Z,87.29
2023-05-11T05:17:01.699Z,86.69
2023-05-11T05:20:06.601Z,87.31
2023-05-11T05:23:09.162Z,87.59
2023-05-11T05:26:11.822Z,87.06
2023-05-11T05:29:14.388Z,87.00
2023-05-11T05:32:16.982Z,87.32
2023-05-11T05:35:21.093Z,87.00
2023-05-11T05:38:23.753Z,86.74
2023-05-11T05:41:26.490Z,87.40
2023-05-11T05:44:29.000Z,87.34
2023-05-11T05:47:31.649Z,87.31
2023-05-11T05:50:35.773Z,87.13
2023-05-11T05:53:38.497Z,87.29
2023-05-11T05:56:41.069Z,87.03
2023-05-11T05:59:43.678Z,87.50
2023-05-11T06:02:46.360Z,87.15
2023-05-11T06:05:50.389Z,87.35
2023-05-11T06:08:52.928Z,87.76
2023-05-11T06:11:55.808Z,88.34
2023-05-11T06:14:58.384Z,87.76
2023-05-11T06:18:00.945Z,87.84
2023-05-11T06:21:04.859Z,87.45
2023-05-11T06:24:07.891Z,87.34
2023-05-11T06:27:10.699Z,88.04
2023-05-11T06:30:13.729Z,88.22
2023-05-11T06:33:16.318Z,88.07
2023-05-11T06:36:20.301Z,88.03
2023-05-11T06:39:22.898Z,87.43
2023-05-11T06:42:25.640Z,87.90
2023-05-11T06:45:28.329Z,87.94
2023-05-11T06:48:30.929Z,87.40
2023-05-11T06:51:34.848Z,87.53
2023-05-11T06:54:37.409Z,87.60
2023-05-11T06:57:41.997Z,87.47
2023-05-11T07:00:44.582Z,88.15
2023-05-11T07:03:48.771Z,87.24
2023-05-11T07:06:52.703Z,87.16
2023-05-11T07:09:55.389Z,86.76
2023-05-11T07:12:58.000Z,87.02
2023-05-11T07:16:00.629Z,86.65
2023-05-11T07:19:03.301Z,86.52
2023-05-11T07:22:07.287Z,87.10
2023-05-11T07:25:10.596Z,86.77
2023-05-11T07:28:13.179Z,86.50
2023-05-11T07:31:15.794Z,86.78
2023-05-11T07:34:18.422Z,86.81
2023-05-11T07:37:22.353Z,86.57
2023-05-11T07:40:25.032Z,85.92
2023-05-11T07:43:27.667Z,85.83
2023-05-11T07:46:30.353Z,85.59
2023-05-11T07:49:42.871Z,85.62
2023-05-11T07:52:48.573Z,84.58
2023-05-11T07:55:51.909Z,84.17
2023-05-11T07:58:54.531Z,84.14
2023-05-11T08:01:57.127Z,83.94
2023-05-11T08:04:59.674Z,83.97
2023-05-11T08:08:03.720Z,83.23
2023-05-11T08:11:06.661Z,83.63
2023-05-11T08:14:09.193Z,83.27
2023-05-11T08:17:11.892Z,82.99
2023-05-11T08:20:14.703Z,82.94
2023-05-11T08:23:18.683Z,82.50
2023-05-11T08:26:21.437Z,82.32
2023-05-11T08:29:27.125Z,82.21
2023-05-11T08:32:30.267Z,82.07
2023-05-11T08:35:33.005Z,82.54
2023-05-11T08:38:37.347Z,82.16
2023-05-11T08:41:39.935Z,82.15
2023-05-11T08:44:43.537Z,81.45
2023-05-11T08:47:46.459Z,81.07
2023-05-11T08:50:49.067Z,80.78
2023-05-11T08:53:53.964Z,80.75
2023-05-11T08:56:57.056Z,81.18
2023-05-11T08:59:59.606Z,81.34
2023-05-11T09:03:02.411Z,80.68
2023-05-11T09:06:07.172Z,80.65
2023-05-11T09:09:11.122Z,80.24
2023-05-11T09:12:14.045Z,80.12
2023-05-11T09:15:16.564Z,79.91
2023-05-11T09:18:19.170Z,80.10
2023-05-11T09:21:21.688Z,80.48
2023-05-11T09:24:25.782Z,80.73
2023-05-11T09:27:28.353Z,80.58
2023-05-11T09:30:30.932Z,80.41
2023-05-11T09:33:33.521Z,79.98
2023-05-11T09:36:36.121Z,80.56
2023-05-11T09:39:52.743Z,80.64
2023-05-11T09:43:03.273Z,80.19
2023-05-11T09:46:07.911Z,79.87
2023-05-11T09:49:10.684Z,78.59
2023-05-11T09:52:13.834Z,78.67
2023-05-11T09:55:17.963Z,78.00
2023-05-11T09:58:20.805Z,78.37
2023-05-11T10:01:30.290Z,78.24
2023-05-11T10:04:33.197Z,78.39
2023-05-11T10:07:36.265Z,78.38
2023-05-11T10:10:40.199Z,78.62
2023-05-11T10:13:43.352Z,78.67
2023-05-11T10:16:46.477Z,78.92
2023-05-11T10:19:49.261Z,79.18
2023-05-11T10:22:52.226Z,79.12
2023-05-11T10:25:56.277Z,79.39
2023-05-11T10:28:59.192Z,79.65
2023-05-11T10:32:01.769Z,79.43
2023-05-11T10:35:04.727Z,79.90
2023-05-11T10:38:07.318Z,80.11
2023-05-11T10:41:16.464Z,79.88
2023-05-11T10:44:27.037Z,80.16
2023-05-11T10:47:38.770Z,80.10
2023-05-11T10:50:48.727Z,80.18
2023-05-11T10:53:58.870Z,80.33
2023-05-11T10:57:13.832Z,80.31
2023-05-11T11:00:47.676Z,80.64
2023-05-11T11:03:58.257Z,80.83
2023-05-11T11:07:10.030Z,80.87
2023-05-11T11:10:12.973Z,80.77
2023-05-11T11:13:18.193Z,80.44
2023-05-11T11:16:23.523Z,80.10
2023-05-11T11:19:39.395Z,80.65
2023-05-11T11:22:47.003Z,80.62
2023-05-11T11:25:53.966Z,80.16
2023-05-11T11:29:10.900Z,80.45
2023-05-11T11:32:26.316Z,80.57
2023-05-11T11:35:46.108Z,80.52
2023-05-11T11:38:58.281Z,80.44
2023-05-11T11:42:02.566Z,80.24
2023-05-11T11:45:29.125Z,79.85
2023-05-11T11:48:32.443Z,79.85
2023-05-11T11:51:35.145Z,79.76
2023-05-11T11:54:38.236Z,80.15
2023-05-11T11:57:46.573Z,79.99
2023-05-11T12:00:50.444Z,80.07
2023-05-11T12:03:59.618Z,80.26
2023-05-11T12:07:02.319Z,80.66
2023-05-11T12:10:05.569Z,80.49
2023-05-11T12:13:08.154Z,80.84
2023-05-11T12:16:12.603Z,80.94
2023-05-11T12:19:15.480Z,81.25
2023-05-11T12:22:22.988Z,81.60
2023-05-11T12:25:25.558Z,81.66
2023-05-11T12:28:28.203Z,82.08
2023-05-11T12:31:35.612Z,82.57
2023-05-11T12:34:38.261Z,82.52
2023-05-11T12:37:42.583Z,82.76
2023-05-11T12:40:48.773Z,82.99
2023-05-11T12:43:51.580Z,83.34
2023-05-11T12:46:55.548Z,82.98
2023-05-11T12:49:58.074Z,82.80
2023-05-11T12:53:13.882Z,82.57
2023-05-11T12:56:16.428Z,82.60
2023-05-11T12:59:29.899Z,82.46
2023-05-11T13:02:33.895Z,82.08
2023-05-11T13:05:36.763Z,82.22
2023-05-11T13:08:40.000Z,82.10
2023-05-11T13:11:42.556Z,81.96
2023-05-11T13:14:46.478Z,81.91
2023-05-11T13:17:57.149Z,81.54
2023-05-11T13:21:06.634Z,81.55
2023-05-11T13:24:09.280Z,81.20
2023-05-11T13:27:11.802Z,81.25
2023-05-11T13:30:14.845Z,81.08
2023-05-11T13:33:18.968Z,81.01
2023-05-11T13:36:21.565Z,80.47
2023-05-11T13:39:24.189Z,80.41
2023-05-11T13:42:26.807Z,79.87
2023-05-11T13:45:29.654Z,79.50
2023-05-11T13:48:33.612Z,79.02
2023-05-11T13:51:36.266Z,78.53
2023-05-11T13:54:39.046Z,78.37
2023-05-11T13:57:41.899Z,78.13
2023-05-11T14:00:53.352Z,77.21
2023-05-11T14:04:08.154Z,77.62
2023-05-11T14:07:10.710Z,76.54
2023-05-11T14:10:13.676Z,76.60
2023-05-11T14:13:16.238Z,76.72
2023-05-11T14:16:19.598Z,76.68
2023-05-11T14:19:23.653Z,76.43
2023-05-11T14:22:28.047Z,76.48
2023-05-11T14:25:31.776Z,76.22
2023-05-11T14:28:34.516Z,76.18
2023-05-11T14:31:37.360Z,76.10
2023-05-11T14:34:42.772Z,75.63
2023-05-11T14:37:45.447Z,74.84
2023-05-11T14:40:48.759Z,74.62
2023-05-11T14:43:52.651Z,74.89
2023-05-11T14:46:55.350Z,74.74
2023-05-11T14:49:59.295Z,74.21
2023-05-11T14:53:01.852Z,74.44
2023-05-11T14:56:04.547Z,74.49
2023-05-11T14:59:07.108Z,74.44
2023-05-11T15:02:09.823Z,74.31
2023-05-11T15:05:13.790Z,74.27
2023-05-11T15:08:29.198Z,74.34
2023-05-11T15:11:33.454Z,74.30
2023-05-11T15:14:36.066Z,74.38
2023-05-11T15:17:38.777Z,73.96
2023-05-11T15:20:42.756Z,73.67
2023-05-11T15:23:45.687Z,73.94
2023-05-11T15:26:48.253Z,74.07
2023-05-11T15:29:50.820Z,73.86
2023-05-11T15:32:53.465Z,74.06
2023-05-11T15:35:57.411Z,73.02
2023-05-11T15:38:59.988Z,73.36
2023-05-11T15:42:02.828Z,73.46
2023-05-11T15:45:06.356Z,73.81
2023-05-11T15:48:09.204Z,73.81
2023-05-11T15:51:14.019Z,73.66
2023-05-11T15:54:16.592Z,73.74
2023-05-11T15:57:19.196Z,73.57
2023-05-11T16:00:22.027Z,73.68
2023-05-11T16:03:24.750Z,74.03
2023-05-11T16:06:28.885Z,74.28
2023-05-11T16:09:31.473Z,74.38
2023-05-11T16:12:34.013Z,74.24
2023-05-11T16:15:36.628Z,74.41
2023-05-11T16:18:39.435Z,74.52
2023-05-11T16:21:43.692Z,73.71
2023-05-11T16:24:46.331Z,72.96
2023-05-11T16:27:48.918Z,73.37
2023-05-11T16:30:51.504Z,73.61
2023-05-11T16:33:54.149Z,73.64
2023-05-11T16:36:59.160Z,73.65
2023-05-11T16:40:02.490Z,73.78
2023-05-11T16:43:05.142Z,73.85
2023-05-11T16:46:07.763Z,73.74
2023-05-11T16:49:10.366Z,73.46
2023-05-11T16:52:14.512Z,73.79
2023-05-11T16:55:17.308Z,73.67
2023-05-11T16:58:20.164Z,73.64
2023-05-11T17:01:22.827Z,73.39
2023-05-11T17:04:25.490Z,73.05
2023-05-11T17:07:29.460Z,72.76
2023-05-11T17:10:32.257Z,72.44
2023-05-11T17:13:34.870Z,72.11
2023-05-11T17:16:37.541Z,72.16
2023-05-11T17:19:40.192Z,71.91
2023-05-11T17:22:44.181Z,71.69
2023-05-11T17:25:46.750Z,71.92
2023-05-11T17:28:49.340Z,72.02
2023-05-11T17:31:52.678Z,72.25
2023-05-11T17:34:55.523Z,72.42
2023-05-11T17:37:59.700Z,72.42
